createdAt,value
2018-08-13T00:00:06.900Z,27.00
2018-08-13T00:02:57.790Z,26.60
2018-08-13T00:08:43.920Z,27.10
2018-08-13T00:14:17.181Z,27.50
2018-08-13T00:17:08.216Z,27.70
2018-08-13T00:20:02.341Z,27.20
2018-08-13T00:25:35.329Z,27.80
2018-08-13T00:28:13.509Z,27.70
2018-08-13T00:30:46.323Z,27.80
2018-08-13T00:45:45.449Z,27.60
2018-08-13T00:48:14.242Z,28.00
2018-08-13T00:59:49.966Z,28.00
2018-08-13T01:05:11.869Z,28.40
2018-08-13T01:19:17.341Z,28.60
2018-08-13T01:21:48.146Z,28.60
2018-08-13T01:24:17.531Z,28.70
2018-08-13T01:26:45.561Z,27.90
2018-08-13T01:29:15.326Z,28.30
2018-08-13T01:37:51.970Z,28.40
2018-08-13T01:43:23.181Z,27.90
2018-08-13T01:46:49.177Z,28.50
2018-08-13T01:49:17.099Z,29.10
2018-08-13T01:55:02.777Z,28.40
2018-08-13T01:57:36.547Z,29.10
2018-08-13T02:00:13.543Z,28.50
2018-08-13T02:02:42.828Z,29.10
2018-08-13T02:11:13.448Z,29.10
2018-08-13T02:13:42.349Z,29.40
2018-08-13T02:16:10.971Z,29.20
2018-08-13T02:18:43.413Z,29.80
2018-08-13T02:24:17.897Z,29.60
2018-08-13T02:30:02.471Z,29.70
2018-08-13T02:32:31.602Z,29.90
2018-08-13T02:35:03.849Z,29.80
2018-08-13T02:37:38.804Z,30.10
2018-08-13T02:42:51.065Z,29.80
2018-08-13T02:48:19.538Z,29.40
2018-08-13T02:50:47.509Z,29.60
2018-08-13T02:53:16.472Z,29.30
2018-08-13T02:55:50.319Z,29.30
2018-08-13T02:58:18.497Z,29.30
2018-08-13T03:03:20.191Z,29.50
2018-08-13T03:06:00.689Z,29.40
2018-08-13T03:08:31.666Z,29.40
2018-08-13T03:16:37.972Z,29.70
2018-08-13T03:19:06.472Z,29.70
2018-08-13T03:24:13.005Z,29.80
2018-08-13T03:26:41.812Z,29.90
2018-08-13T03:29:10.319Z,30.00
2018-08-13T03:31:38.751Z,30.00
2018-08-13T03:39:47.837Z,30.10
2018-08-13T03:42:16.300Z,30.00
2018-08-13T03:44:51.567Z,30.00
2018-08-13T03:47:20.123Z,30.70
2018-08-13T03:49:50.475Z,30.00
2018-08-13T03:55:20.403Z,29.80
2018-08-13T03:57:54.182Z,30.00
2018-08-13T04:00:21.957Z,29.60
2018-08-13T04:02:52.384Z,29.70
2018-08-13T04:08:23.916Z,29.90
2018-08-13T04:10:53.612Z,30.00
2018-08-13T04:13:21.752Z,29.90
2018-08-13T04:18:52.729Z,29.80
2018-08-13T04:24:19.328Z,29.80
2018-08-13T04:27:10.945Z,29.50
2018-08-13T04:29:38.856Z,30.50
2018-08-13T04:32:07.485Z,30.10
2018-08-13T04:34:36.769Z,29.80
2018-08-13T04:37:15.880Z,29.90
2018-08-13T04:39:44.116Z,30.00
2018-08-13T04:45:17.160Z,30.50
2018-08-13T04:47:54.780Z,31.10
2018-08-13T04:50:23.134Z,30.00
2018-08-13T04:52:54.032Z,31.10
2018-08-13T04:58:52.335Z,31.20
2018-08-13T05:04:16.303Z,31.20
2018-08-13T05:09:33.662Z,31.30
2018-08-13T05:12:09.916Z,30.30
2018-08-13T05:17:44.352Z,31.00
2018-08-13T05:20:14.863Z,30.30
2018-08-13T05:28:48.632Z,31.10
2018-08-13T05:34:20.131Z,29.40
2018-08-13T05:39:50.588Z,29.20
2018-08-13T05:42:18.684Z,29.70
2018-08-13T05:48:24.019Z,30.00
2018-08-13T05:54:03.849Z,29.40
2018-08-13T05:56:41.670Z,29.80
2018-08-13T06:02:18.163Z,29.60
2018-08-13T06:04:46.340Z,29.90
2018-08-13T06:07:41.360Z,29.80
2018-08-13T06:10:15.454Z,29.40
2018-08-13T06:19:07.602Z,29.70
2018-08-13T06:21:37.192Z,29.70
2018-08-13T06:24:08.109Z,29.40
2018-08-13T06:29:29.197Z,42.70
2018-08-13T06:31:56.946Z,44.40
2018-08-13T06:37:01.855Z,44.90
2018-08-13T06:39:30.531Z,44.20
2018-08-13T06:41:58.503Z,44.40
2018-08-13T06:44:26.494Z,44.20
2018-08-13T06:47:07.205Z,45.40
2018-08-13T06:49:34.964Z,45.30
2018-08-13T06:52:02.856Z,46.00
2018-08-13T06:54:30.580Z,46.00
2018-08-13T06:56:58.238Z,47.50
2018-08-13T07:05:18.370Z,48.60
2018-08-13T07:08:04.212Z,49.00
2018-08-13T07:10:33.167Z,49.60
2018-08-13T07:13:02.867Z,49.40
2018-08-13T07:15:30.752Z,50.60
2018-08-13T07:17:59.580Z,50.50
2018-08-13T07:20:27.425Z,50.80
2018-08-13T07:22:56.584Z,51.40
2018-08-13T07:25:31.503Z,51.00
2018-08-13T07:27:59.913Z,51.00
2018-08-13T07:30:28.000Z,51.30
2018-08-13T07:33:07.430Z,51.10
2018-08-13T07:35:42.252Z,51.60
2018-08-13T07:40:44.581Z,52.30
2018-08-13T07:46:02.805Z,53.40
2018-08-13T07:48:32.926Z,53.40
2018-08-13T07:51:01.589Z,51.60
2018-08-13T07:53:29.538Z,51.70
2018-08-13T07:56:04.312Z,51.70
2018-08-13T07:58:32.246Z,51.70
2018-08-13T08:01:04.653Z,52.50
2018-08-13T08:03:32.586Z,51.80
2018-08-13T08:06:00.372Z,51.80
2018-08-13T08:08:28.142Z,50.80
2018-08-13T08:10:56.774Z,51.90
2018-08-13T08:13:25.003Z,49.00
2018-08-13T08:15:52.938Z,49.10
2018-08-13T08:18:28.401Z,49.20
2018-08-13T08:21:03.691Z,49.20
2018-08-13T08:23:32.698Z,49.60
2018-08-13T08:26:00.506Z,50.90
2018-08-13T08:28:30.287Z,50.90
2018-08-13T08:30:58.106Z,52.10
2018-08-13T08:33:26.476Z,51.70
2018-08-13T08:35:54.300Z,50.70
2018-08-13T08:38:23.377Z,51.20
2018-08-13T08:40:51.511Z,52.10
2018-08-13T08:43:19.053Z,50.40
2018-08-13T08:45:49.314Z,50.60
2018-08-13T08:48:17.320Z,50.70
2018-08-13T08:50:45.489Z,52.10
2018-08-13T08:53:13.598Z,51.60
2018-08-13T08:55:41.978Z,51.10
2018-08-13T08:58:10.447Z,51.80
2018-08-13T09:00:38.777Z,52.10
2018-08-13T09:03:07.233Z,52.20
2018-08-13T09:05:35.355Z,53.90
2018-08-13T09:08:03.194Z,54.10
2018-08-13T09:10:31.177Z,53.50
2018-08-13T09:12:59.387Z,53.10
2018-08-13T09:15:27.384Z,53.60
2018-08-13T09:18:06.684Z,53.70
2018-08-13T09:20:45.792Z,53.20
2018-08-13T09:23:24.923Z,53.00
2018-08-13T09:26:04.571Z,53.30
2018-08-13T09:28:44.697Z,52.30
2018-08-13T09:33:25.269Z,53.00
2018-08-13T09:38:40.651Z,52.00
2018-08-13T09:41:13.207Z,52.10
2018-08-13T09:46:39.143Z,52.10
2018-08-13T09:49:07.566Z,52.40
2018-08-13T09:51:47.384Z,52.40
2018-08-13T09:54:18.141Z,52.20
2018-08-13T09:56:47.975Z,52.50
2018-08-13T09:59:15.982Z,52.40
2018-08-13T10:01:44.133Z,52.70
2018-08-13T10:04:13.679Z,52.10
2018-08-13T10:06:42.251Z,52.60
2018-08-13T10:09:11.460Z,51.50
2018-08-13T10:11:39.228Z,52.70
2018-08-13T10:14:07.354Z,52.20
2018-08-13T10:16:35.250Z,52.90
2018-08-13T10:19:04.022Z,53.80
2018-08-13T10:21:33.583Z,52.80
2018-08-13T10:24:02.068Z,54.00
2018-08-13T10:26:30.312Z,54.90
2018-08-13T10:29:17.809Z,54.20
2018-08-13T10:31:45.714Z,54.80
2018-08-13T10:34:14.427Z,55.20
2018-08-13T10:36:42.484Z,55.50
2018-08-13T10:39:11.900Z,55.80
2018-08-13T10:41:46.786Z,57.00
2018-08-13T10:44:20.405Z,56.50
2018-08-13T10:46:48.182Z,57.60
2018-08-13T10:49:16.076Z,58.30
2018-08-13T10:52:01.136Z,57.80
2018-08-13T10:54:31.862Z,59.00
2018-08-13T10:57:05.536Z,60.00
2018-08-13T10:59:33.302Z,60.10
2018-08-13T11:02:11.315Z,59.50
2018-08-13T11:04:45.803Z,60.20
2018-08-13T11:07:15.049Z,61.30
2018-08-13T11:09:43.060Z,60.60
2018-08-13T11:12:13.613Z,60.10
2018-08-13T11:14:56.190Z,60.60
2018-08-13T11:17:24.260Z,60.20
2018-08-13T11:19:52.067Z,61.90
2018-08-13T11:22:21.815Z,61.50
2018-08-13T11:24:54.048Z,62.00
2018-08-13T11:36:21.949Z,60.30
2018-08-13T11:39:10.298Z,61.60
2018-08-13T11:41:38.367Z,60.90
2018-08-13T11:44:06.116Z,60.80
2018-08-13T11:49:27.603Z,61.50
2018-08-13T11:54:59.204Z,60.80
2018-08-13T11:57:27.273Z,62.20
2018-08-13T12:00:15.271Z,63.20
2018-08-13T12:02:47.260Z,63.20
2018-08-13T12:05:21.749Z,63.20
2018-08-13T12:07:50.443Z,62.90
2018-08-13T12:10:19.912Z,63.20
2018-08-13T12:12:52.039Z,63.20
2018-08-13T12:15:22.621Z,63.10
2018-08-13T12:17:50.559Z,63.30
2018-08-13T12:20:19.971Z,63.20
2018-08-13T12:25:53.257Z,63.30
2018-08-13T12:28:26.150Z,65.50
2018-08-13T12:31:07.011Z,63.40
2018-08-13T12:33:34.902Z,63.40
2018-08-13T12:36:08.829Z,63.30
2018-08-13T12:38:36.843Z,63.30
2018-08-13T12:41:11.689Z,63.40
2018-08-13T12:43:40.507Z,63.40
2018-08-13T12:49:05.582Z,63.40
2018-08-13T12:51:33.607Z,63.40
2018-08-13T12:54:02.493Z,64.80
2018-08-13T12:56:30.458Z,64.00
2018-08-13T12:59:11.217Z,64.60
2018-08-13T13:01:45.560Z,62.60
2018-08-13T13:04:31.077Z,63.60
2018-08-13T13:07:04.211Z,63.70
2018-08-13T13:12:08.083Z,63.70
2018-08-13T13:14:36.146Z,63.00
2018-08-13T13:17:04.072Z,62.80
2018-08-13T13:19:32.132Z,61.80
2018-08-13T13:22:01.114Z,61.80
2018-08-13T13:24:29.367Z,62.70
2018-08-13T13:26:58.100Z,61.90
2018-08-13T13:29:26.148Z,62.40
2018-08-13T13:31:54.310Z,60.00
2018-08-13T13:34:27.352Z,60.90
2018-08-13T13:36:55.124Z,60.50
2018-08-13T13:45:04.036Z,58.10
2018-08-13T13:47:31.804Z,58.10
2018-08-13T13:49:59.603Z,56.80
2018-08-13T13:52:27.951Z,57.70
2018-08-13T13:58:00.785Z,54.40
2018-08-13T14:00:40.771Z,56.00
2018-08-13T14:03:08.990Z,56.70
2018-08-13T14:05:36.876Z,55.70
2018-08-13T14:08:09.982Z,54.10
2018-08-13T14:10:38.032Z,54.10
2018-08-13T14:13:07.083Z,54.10
2018-08-13T14:15:35.525Z,54.20
2018-08-13T14:18:03.935Z,55.00
2018-08-13T14:20:33.175Z,53.50
2018-08-13T14:23:07.677Z,53.60
2018-08-13T14:25:35.664Z,52.50
2018-08-13T14:28:04.064Z,53.40
2018-08-13T14:30:33.044Z,53.10
2018-08-13T14:33:10.729Z,53.20
2018-08-13T14:35:39.711Z,52.90
2018-08-13T14:38:10.414Z,51.50
2018-08-13T14:40:39.757Z,52.10
2018-08-13T14:43:08.287Z,52.00
2018-08-13T14:45:37.481Z,51.60
2018-08-13T14:48:05.801Z,51.80
2018-08-13T14:50:33.639Z,52.10
2018-08-13T14:53:09.639Z,52.10
2018-08-13T14:55:37.799Z,50.80
2018-08-13T14:58:05.876Z,52.00
2018-08-13T15:00:35.370Z,52.10
2018-08-13T15:03:03.975Z,52.90
2018-08-13T15:05:31.707Z,52.20
2018-08-13T15:08:00.625Z,51.30
2018-08-13T15:10:29.310Z,51.80
2018-08-13T15:12:58.880Z,51.30
2018-08-13T15:15:28.497Z,50.60
2018-08-13T15:17:56.579Z,51.00
2018-08-13T15:20:26.410Z,51.00
2018-08-13T15:23:04.267Z,49.80
2018-08-13T15:25:33.717Z,49.30
2018-08-13T15:28:03.100Z,49.10
2018-08-13T15:30:32.017Z,49.00
2018-08-13T15:33:00.680Z,49.10
2018-08-13T15:35:42.819Z,48.40
2018-08-13T15:38:15.413Z,47.60
2018-08-13T15:40:43.400Z,46.50
2018-08-13T15:43:12.118Z,47.40
2018-08-13T15:45:39.928Z,45.60
2018-08-13T15:48:08.696Z,45.00
2018-08-13T15:50:45.268Z,44.40
2018-08-13T15:53:16.291Z,43.80
2018-08-13T15:55:44.453Z,42.80
2018-08-13T15:58:12.263Z,42.00
2018-08-13T16:00:43.392Z,41.60
2018-08-13T16:03:18.218Z,41.50
2018-08-13T16:05:46.395Z,39.90
2018-08-13T16:08:15.714Z,40.50
2018-08-13T16:10:49.499Z,40.40
2018-08-13T16:16:23.024Z,40.20
2018-08-13T16:18:51.555Z,40.70
2018-08-13T16:21:21.464Z,41.10
2018-08-13T16:26:38.683Z,40.10
2018-08-13T16:29:06.707Z,40.60
2018-08-13T16:31:34.859Z,40.20
2018-08-13T16:34:02.738Z,40.50
2018-08-13T16:36:31.520Z,40.80
2018-08-13T16:38:59.753Z,40.80
2018-08-13T16:41:27.852Z,41.30
2018-08-13T16:43:56.047Z,41.40
2018-08-13T16:46:25.804Z,41.50
2018-08-13T16:48:55.035Z,41.70
2018-08-13T16:51:23.389Z,41.40
2018-08-13T16:53:57.499Z,41.80
2018-08-13T16:56:25.883Z,42.50
2018-08-13T16:58:54.496Z,42.90
2018-08-13T17:01:23.611Z,42.40
2018-08-13T17:04:02.365Z,42.80
2018-08-13T17:06:30.175Z,42.50
2018-08-13T17:08:58.971Z,42.80
2018-08-13T17:14:13.138Z,42.20
2018-08-13T17:19:23.442Z,41.80
2018-08-13T17:21:51.967Z,41.60
2018-08-13T17:30:11.755Z,40.70
2018-08-13T17:32:45.697Z,40.90
2018-08-13T17:38:09.484Z,40.60
2018-08-13T17:43:16.444Z,40.20
2018-08-13T17:45:51.610Z,40.40
2018-08-13T17:48:38.454Z,40.70
2018-08-13T17:54:05.446Z,41.40
2018-08-13T17:56:36.377Z,41.60
2018-08-13T17:59:05.419Z,41.80
2018-08-13T18:01:46.057Z,41.50
2018-08-13T18:04:19.356Z,41.80
2018-08-13T18:06:50.752Z,42.50
2018-08-13T18:12:02.603Z,42.60
2018-08-13T18:14:31.831Z,42.80
2018-08-13T18:17:03.873Z,43.10
2018-08-13T18:19:31.665Z,43.10
2018-08-13T18:22:00.982Z,43.40
2018-08-13T18:24:29.096Z,43.70
2018-08-13T18:26:57.324Z,43.50
2018-08-13T18:29:25.355Z,44.10
2018-08-13T18:31:53.552Z,45.00
2018-08-13T18:34:22.585Z,40.10
2018-08-13T18:36:50.660Z,38.10
2018-08-13T18:39:18.528Z,37.90
2018-08-13T18:41:46.327Z,36.60
2018-08-13T18:44:15.241Z,37.10
2018-08-13T18:46:43.096Z,37.00
2018-08-13T18:49:11.174Z,36.50
2018-08-13T18:51:39.156Z,36.80
2018-08-13T18:54:06.923Z,36.80
2018-08-13T18:56:34.756Z,38.70
2018-08-13T18:59:02.464Z,39.00
2018-08-13T19:01:30.282Z,39.70
2018-08-13T19:03:58.126Z,40.00
2018-08-13T19:06:25.814Z,40.30
2018-08-13T19:08:53.563Z,40.30
2018-08-13T19:11:21.324Z,40.70
2018-08-13T19:13:49.231Z,40.60
2018-08-13T19:16:17.050Z,40.80
2018-08-13T19:18:45.503Z,41.10
2018-08-13T19:21:13.492Z,41.20
2018-08-13T19:23:42.359Z,41.50
2018-08-13T19:26:10.218Z,41.30
2018-08-13T19:28:38.081Z,41.40
2018-08-13T19:31:05.840Z,41.10
2018-08-13T19:33:33.490Z,41.00
2018-08-13T19:36:01.143Z,40.90
2018-08-13T19:38:29.030Z,40.30
2018-08-13T19:40:56.654Z,40.20
2018-08-13T19:43:24.516Z,39.70
2018-08-13T19:45:52.161Z,39.40
2018-08-13T19:48:19.866Z,39.50
2018-08-13T19:50:47.771Z,39.50
2018-08-13T19:53:15.438Z,39.70
2018-08-13T19:55:43.310Z,39.80
2018-08-13T19:58:11.217Z,40.00
2018-08-13T20:00:38.809Z,39.60
2018-08-13T20:03:10.222Z,40.00
2018-08-13T20:05:37.922Z,40.00
2018-08-13T20:08:05.811Z,40.20
2018-08-13T20:10:33.478Z,40.30
2018-08-13T20:13:01.151Z,40.20
2018-08-13T20:15:29.489Z,40.50
2018-08-13T20:17:57.430Z,40.40
2018-08-13T20:20:25.101Z,40.10
2018-08-13T20:22:52.762Z,40.00
2018-08-13T20:25:20.915Z,40.20
2018-08-13T20:30:47.330Z,39.90
2018-08-13T20:33:15.107Z,39.90
2018-08-13T20:35:43.123Z,40.00
2018-08-13T20:38:11.061Z,39.90
2018-08-13T20:40:38.751Z,39.80
2018-08-13T20:43:06.405Z,40.00
2018-08-13T20:45:34.161Z,39.90
2018-08-13T20:48:01.972Z,39.80
2018-08-13T20:50:31.752Z,39.70
2018-08-13T20:52:59.816Z,39.80
2018-08-13T20:55:28.507Z,40.00
2018-08-13T20:57:56.214Z,40.10
2018-08-13T21:00:25.694Z,40.20
2018-08-13T21:02:53.627Z,40.20
2018-08-13T21:05:21.539Z,40.20
2018-08-13T21:07:49.781Z,40.30
2018-08-13T21:10:20.657Z,40.30
2018-08-13T21:12:48.919Z,40.40
2018-08-13T21:15:17.260Z,40.40
2018-08-13T21:17:45.402Z,40.60
2018-08-13T21:20:18.016Z,40.70
2018-08-13T21:22:45.707Z,40.90
2018-08-13T21:25:13.593Z,40.90
2018-08-13T21:27:42.434Z,40.90
2018-08-13T21:30:10.494Z,41.00
2018-08-13T21:32:44.826Z,41.20
2018-08-13T21:35:18.273Z,41.40
2018-08-13T21:37:46.233Z,41.40
2018-08-13T21:40:15.530Z,41.80
2018-08-13T21:42:43.807Z,41.80
2018-08-13T21:45:13.050Z,41.90
2018-08-13T21:47:44.081Z,42.00
2018-08-13T21:50:16.632Z,42.10
2018-08-13T21:52:46.193Z,42.10
2018-08-13T21:55:13.937Z,42.40
2018-08-13T21:57:42.702Z,42.50
2018-08-13T22:00:46.540Z,42.80
2018-08-13T22:03:15.462Z,43.00
2018-08-13T22:05:43.272Z,43.20
2018-08-13T22:08:12.278Z,43.30
2018-08-13T22:10:39.883Z,43.30
2018-08-13T22:13:07.967Z,43.30
2018-08-13T22:15:35.670Z,43.30
2018-08-13T22:18:04.780Z,43.40
2018-08-13T22:20:34.134Z,43.20
2018-08-13T22:23:02.735Z,43.40
2018-08-13T22:25:33.651Z,42.50
2018-08-13T22:28:01.496Z,43.20
2018-08-13T22:30:30.967Z,43.30
2018-08-13T22:32:58.763Z,43.30
2018-08-13T22:35:26.676Z,43.20
2018-08-13T22:37:54.491Z,43.20
2018-08-13T22:40:22.214Z,43.30
2018-08-13T22:42:50.026Z,43.30
2018-08-13T22:45:23.144Z,43.30
2018-08-13T22:47:50.991Z,44.10
2018-08-13T22:50:18.905Z,44.50
2018-08-13T22:52:47.026Z,44.70
2018-08-13T22:55:16.284Z,44.60
2018-08-13T22:57:44.150Z,44.80
2018-08-13T23:00:14.009Z,44.70
2018-08-13T23:02:42.411Z,44.80
2018-08-13T23:05:12.825Z,44.80
2018-08-13T23:07:41.001Z,45.00
2018-08-13T23:10:16.337Z,45.10
2018-08-13T23:12:44.496Z,45.10
2018-08-13T23:15:13.671Z,45.70
2018-08-13T23:17:42.245Z,45.40
2018-08-13T23:20:28.306Z,45.70
2018-08-13T23:23:00.378Z,45.50
2018-08-13T23:25:28.644Z,45.20
2018-08-13T23:27:57.826Z,45.30
2018-08-13T23:30:25.620Z,44.80
2018-08-13T23:32:54.250Z,45.70
2018-08-13T23:35:26.544Z,45.10
2018-08-13T23:37:54.518Z,45.10
2018-08-13T23:40:22.846Z,45.40
2018-08-13T23:42:50.692Z,45.10
2018-08-13T23:45:23.132Z,45.10
2018-08-13T23:47:50.920Z,45.30
2018-08-13T23:50:20.837Z,45.20
2018-08-13T23:52:50.675Z,45.00
2018-08-13T23:55:37.935Z,45.90
2018-08-13T23:58:10.442Z,45.80
